Soaring Guidance
Issued by NWS Reno, NV

Home | Current Version | Previous Version | Text Only | Print | Product List | Glossary On
Versions: 1 2 3 4 5 6 7 8 9 10 11 12 13 14
492
UXUS97 KREV 131433
SRGREV

SOARING FORECAST
NATIONAL WEATHER SERVICE - RENO NV
700 AM PST WED DEC 13 2017

THIS SOARING FORECAST IS FOR THE EASTERN SIERRA AND WESTERN NEVADA
WITH SPECIFIC INDICES FOR THE GREATER RENO AREA.

THIS FORECAST IS PREPARED DAILY BY 700 AM AND IS NOT UPDATED.

FOR CURRENT FLIGHT CONDITIONS...FORECASTS...AND ADVISORIES...ACCESS
YOUR LOCAL BRIEFING OUTLET OR FLIGHT SERVICE STATION.

*******************************************************************
FORECASTED LOCAL INDICES FOR RENO:        TODAY     YESTERDAY
FORECASTED MAX TEMP AT RENO (DEG F).....     48          47
FORECASTED TRIGGER TEMPERATURE (DEG F)..     71          71
   EXCEEDED YESTERDAY BY
FORECASTED MAXIMUM ALTITUDE (FT MSL)....   6100        6000
FORECASTED SOARING INDEX (FPM)..........    363         360
FORECASTED K-INDEX.........VALID 18Z....    -47         -39
FORECASTED K-INDEX.........VALID 00Z....    -11         -36
FORECASTED LIFTED INDEX....VALID 18Z....     17          15
FORECASTED LIFTED INDEX....VALID 00Z....     15          13

AFTERNOON WINDS ALOFT FORECAST
MSL (FT) WIND/TEMP
9000  3613/+09
10000 3615/+07
12000 3619/+03
14000 1221/-01
16000 0624/-06
18000  131/-11
24000 3543/-24
30000 3652/-42
34000 0147/-53
39000 3647/-62

SLIDE MOUNTAIN DATA:
     DATE       TIME     TEMP  DEWPT   RH         WIND (MPH)
                        (F)   (F)           | DIR  SPEED GUST


RUN: 2017-12-13  06:20 AM

SIERRA CREST 8700 FT DATA:
   DATE     TIME  TEMP  RH         WIND
                            DIR   SPEED   GUST
2017-12-13 0545   49    2   017      3      7
2017-12-13 0530   49    1   051      6      7
2017-12-13 0515   48    1   031      5      7
2017-12-13 0500   49    1   012      5      7

RENO TAF FORECAST:
KRNO 131120Z 1312/1412 00000KT P6SM SKC
     FM132100 20004KT P6SM FEW200

CARSON CITY TAF FORECAST:
KCXP 131120Z 1312/1412 VRB03KT P6SM SKC
     FM132000 08010KT P6SM FEW200
     FM140100 VRB03KT P6SM SKC

OUTLOOK FOR THE RENO-CARSON CITY-MINDEN AREA:
.THURSDAY...SUNNY, HAZE. HIGHS 47 TO 52. LIGHT WINDS.

SUNRISE AND SUNSET
DECEMBER 13 2017......SUNRISE   711 AM PST   SUNSET   436 PM PST
DECEMBER 14 2017......SUNRISE   712 AM PST   SUNSET   436 PM PST



USA.gov is the U.S. government's official web portal to all federal, state and local government web resources and services.